createdAt,value
2023-04-21T00:01:01.144Z,14.98
2023-04-21T00:03:28.945Z,9.70
2023-04-21T00:05:58.613Z,12.65
2023-04-21T00:08:28.811Z,16.90
2023-04-21T00:10:56.016Z,16.23
2023-04-21T00:13:23.840Z,12.88
2023-04-21T00:15:51.153Z,13.45
2023-04-21T00:18:18.304Z,10.38
2023-04-21T00:20:45.316Z,13.80
2023-04-21T00:23:12.395Z,13.55
2023-04-21T00:25:39.400Z,14.38
2023-04-21T00:28:06.421Z,16.90
2023-04-21T00:30:37.125Z,11.50
2023-04-21T00:33:05.115Z,14.65
2023-04-21T00:35:32.236Z,18.08
2023-04-21T00:37:59.422Z,14.93
2023-04-21T00:40:26.806Z,15.15
2023-04-21T00:42:53.790Z,12.85
2023-04-21T00:45:21.331Z,14.52
2023-04-21T00:47:48.585Z,12.98
2023-04-21T00:50:15.736Z,15.35
2023-04-21T00:52:44.689Z,16.30
2023-04-21T00:55:11.925Z,10.07
2023-04-21T00:57:39.039Z,14.20
2023-04-21T01:00:08.774Z,14.23
2023-04-21T01:02:38.828Z,16.73
2023-04-21T01:05:09.121Z,12.50
2023-04-21T01:07:39.023Z,17.52
2023-04-21T01:10:06.908Z,12.85
2023-04-21T01:12:35.782Z,12.90
2023-04-21T01:15:02.927Z,14.10
2023-04-21T01:17:31.314Z,12.38
2023-04-21T01:20:02.249Z,14.23
2023-04-21T01:22:30.201Z,11.32
2023-04-21T01:24:57.855Z,14.05
2023-04-21T01:27:26.838Z,12.70
2023-04-21T01:29:54.408Z,14.27
2023-04-21T01:32:29.036Z,12.73
2023-04-21T01:34:58.127Z,17.75
2023-04-21T01:37:29.931Z,15.30
2023-04-21T01:40:00.541Z,12.18
2023-04-21T01:42:29.831Z,11.68
2023-04-21T01:44:59.775Z,18.85
2023-04-21T01:47:27.105Z,23.63
2023-04-21T01:49:54.099Z,36.60
2023-04-21T01:52:21.713Z,55.70
2023-04-21T01:54:49.021Z,72.15
2023-04-21T01:57:17.451Z,71.07
2023-04-21T01:59:44.850Z,70.63
2023-04-21T02:02:12.167Z,66.97
2023-04-21T02:04:39.482Z,60.47
2023-04-21T02:07:06.785Z,64.80
2023-04-21T02:09:33.814Z,67.57
2023-04-21T02:12:02.024Z,69.65
2023-04-21T02:14:29.148Z,59.90
2023-04-21T02:16:56.326Z,61.67
2023-04-21T02:19:24.133Z,49.67
2023-04-21T02:21:51.525Z,40.65
2023-04-21T02:24:22.139Z,36.55
2023-04-21T02:26:49.528Z,35.95
2023-04-21T02:29:16.815Z,33.10
2023-04-21T02:31:54.635Z,30.17
2023-04-21T02:34:26.753Z,23.30
2023-04-21T02:36:53.895Z,17.45
2023-04-21T02:39:21.014Z,24.95
2023-04-21T02:41:48.227Z,17.80
2023-04-21T02:44:16.205Z,17.05
2023-04-21T02:46:43.781Z,16.77
2023-04-21T02:49:11.375Z,17.27
2023-04-21T02:51:38.329Z,14.90
2023-04-21T02:54:06.152Z,12.77
2023-04-21T02:56:34.681Z,15.25
2023-04-21T02:59:01.914Z,14.15
2023-04-21T03:01:28.931Z,16.88
2023-04-21T03:03:56.372Z,21.25
2023-04-21T03:06:23.711Z,16.33
2023-04-21T03:08:50.914Z,20.17
2023-04-21T03:11:17.731Z,15.77
2023-04-21T03:13:46.054Z,21.23
2023-04-21T03:16:13.465Z,21.58
2023-04-21T03:18:40.699Z,18.65
2023-04-21T03:21:07.787Z,17.70
2023-04-21T03:23:36.076Z,14.30
2023-04-21T03:26:07.950Z,17.92
2023-04-21T03:28:35.439Z,14.85
2023-04-21T03:31:03.284Z,16.23
2023-04-21T03:33:30.163Z,25.23
2023-04-21T03:35:57.161Z,19.58
2023-04-21T03:38:24.074Z,16.15
2023-04-21T03:40:51.175Z,18.02
2023-04-21T03:43:19.138Z,17.30
2023-04-21T03:45:46.258Z,16.15
2023-04-21T03:48:13.531Z,17.42
2023-04-21T03:50:40.593Z,16.92
2023-04-21T03:53:07.560Z,15.05
2023-04-21T03:55:34.623Z,13.65
2023-04-21T03:58:01.490Z,15.80
2023-04-21T04:00:28.566Z,13.20
2023-04-21T04:02:55.580Z,16.85
2023-04-21T04:05:22.837Z,17.38
2023-04-21T04:07:49.799Z,15.60
2023-04-21T04:10:16.790Z,15.23
2023-04-21T04:12:43.676Z,17.52
2023-04-21T04:15:10.985Z,14.70
2023-04-21T04:17:37.949Z,14.48
2023-04-21T04:20:08.375Z,18.25
2023-04-21T04:22:35.728Z,13.98
2023-04-21T04:25:02.778Z,16.13
2023-04-21T04:27:29.793Z,12.80
2023-04-21T04:29:57.807Z,16.70
2023-04-21T04:32:28.862Z,16.23
2023-04-21T04:34:56.069Z,16.98
2023-04-21T04:37:23.059Z,16.30
2023-04-21T04:39:53.801Z,13.95
2023-04-21T04:42:20.954Z,15.38
2023-04-21T04:44:48.153Z,14.95
2023-04-21T04:47:15.224Z,16.10
2023-04-21T04:49:42.095Z,18.55
2023-04-21T04:52:08.986Z,16.80
2023-04-21T04:54:36.293Z,18.20
2023-04-21T04:57:03.348Z,18.17
2023-04-21T04:59:31.151Z,13.63
2023-04-21T05:01:58.530Z,15.15
2023-04-21T05:04:26.321Z,14.82
2023-04-21T05:06:53.937Z,16.20
2023-04-21T05:09:20.889Z,14.00
2023-04-21T05:11:47.857Z,16.25
2023-04-21T05:14:14.678Z,18.63
2023-04-21T05:16:44.149Z,17.70
2023-04-21T05:19:11.084Z,15.18
2023-04-21T05:21:38.152Z,18.35
2023-04-21T05:24:05.372Z,17.10
2023-04-21T05:26:32.363Z,16.35
2023-04-21T05:28:59.333Z,21.45
2023-04-21T05:31:26.992Z,14.15
2023-04-21T05:33:53.930Z,15.63
2023-04-21T05:36:21.109Z,18.10
2023-04-21T05:38:47.968Z,16.77
2023-04-21T05:41:15.902Z,13.55
2023-04-21T05:43:42.797Z,14.10
2023-04-21T05:46:13.509Z,19.02
2023-04-21T05:48:40.535Z,19.95
2023-04-21T05:51:12.310Z,16.98
2023-04-21T05:53:40.184Z,16.75
2023-04-21T05:56:09.674Z,16.73
2023-04-21T05:58:37.554Z,17.30
2023-04-21T06:01:06.653Z,13.48
2023-04-21T06:03:34.384Z,14.63
2023-04-21T06:06:04.503Z,23.10
2023-04-21T06:08:32.558Z,14.10
2023-04-21T06:10:59.808Z,15.13
2023-04-21T06:13:27.779Z,14.73
2023-04-21T06:15:55.638Z,16.38
2023-04-21T06:18:24.025Z,14.07
2023-04-21T06:20:52.361Z,17.88
2023-04-21T06:23:19.312Z,18.00
2023-04-21T06:25:46.641Z,14.80
2023-04-21T06:28:13.859Z,15.27
2023-04-21T06:30:40.971Z,18.05
2023-04-21T06:33:08.035Z,15.82
2023-04-21T06:35:35.132Z,14.27
2023-04-21T06:38:02.501Z,13.52
2023-04-21T06:40:29.416Z,14.57
2023-04-21T06:42:56.344Z,16.13
2023-04-21T06:45:23.512Z,14.18
2023-04-21T06:47:51.066Z,14.80
2023-04-21T06:50:18.265Z,16.70
2023-04-21T06:52:45.384Z,12.70
2023-04-21T06:55:12.436Z,15.93
2023-04-21T06:57:39.377Z,15.85
2023-04-21T07:00:07.339Z,16.75
2023-04-21T07:02:34.323Z,15.38
2023-04-21T07:05:01.617Z,18.25
2023-04-21T07:07:28.688Z,15.95
2023-04-21T07:09:56.032Z,15.45
2023-04-21T07:12:23.185Z,15.27
2023-04-21T07:14:51.234Z,14.93
2023-04-21T07:17:18.162Z,15.65
2023-04-21T07:19:45.141Z,16.70
2023-04-21T07:22:12.097Z,14.65
2023-04-21T07:24:39.515Z,15.73
2023-04-21T07:27:06.623Z,18.48
2023-04-21T07:29:33.694Z,14.88
2023-04-21T07:32:00.730Z,23.30
2023-04-21T07:34:27.596Z,15.00
2023-04-21T07:36:56.476Z,15.75
2023-04-21T07:39:23.450Z,12.75
2023-04-21T07:41:50.764Z,14.25
2023-04-21T07:44:17.838Z,13.15
2023-04-21T07:46:45.102Z,15.02
2023-04-21T07:49:12.055Z,15.48
2023-04-21T07:51:40.226Z,14.63
2023-04-21T07:54:07.291Z,14.68
2023-04-21T07:56:34.612Z,17.67
2023-04-21T07:59:01.787Z,12.55
2023-04-21T08:01:28.666Z,12.60
2023-04-21T08:03:55.699Z,18.27
2023-04-21T08:06:22.936Z,12.40
2023-04-21T08:08:50.340Z,13.30
2023-04-21T08:11:17.495Z,15.80
2023-04-21T08:13:44.493Z,15.52
2023-04-21T08:16:11.552Z,9.65
2023-04-21T08:18:38.507Z,12.10
2023-04-21T08:21:05.989Z,13.65
2023-04-21T08:23:32.977Z,14.63
2023-04-21T08:26:01.705Z,10.98
2023-04-21T08:28:28.641Z,13.00
2023-04-21T08:30:55.642Z,11.15
2023-04-21T08:33:22.569Z,10.18
2023-04-21T08:36:02.376Z,13.15
2023-04-21T08:38:33.189Z,12.77
2023-04-21T08:41:00.380Z,10.18
2023-04-21T08:43:30.406Z,11.68
2023-04-21T08:46:00.031Z,13.57
2023-04-21T08:48:29.898Z,11.48
2023-04-21T08:50:57.987Z,11.70
2023-04-21T08:53:25.529Z,14.68
2023-04-21T08:56:09.989Z,11.60
2023-04-21T08:58:38.636Z,13.32
2023-04-21T09:01:06.039Z,9.48
2023-04-21T09:03:33.355Z,12.82
2023-04-21T09:06:06.531Z,11.98
2023-04-21T09:08:40.089Z,9.13
2023-04-21T09:11:07.366Z,11.35
2023-04-21T09:13:36.603Z,9.02
2023-04-21T09:16:16.589Z,8.50
2023-04-21T09:18:44.748Z,9.02
2023-04-21T09:21:17.829Z,7.50
2023-04-21T09:23:51.183Z,11.82
2023-04-21T09:26:21.286Z,9.00
2023-04-21T09:28:50.668Z,8.70
2023-04-21T09:31:24.600Z,7.80
2023-04-21T09:34:00.088Z,10.48
2023-04-21T09:36:32.057Z,7.18
2023-04-21T09:41:37.344Z,7.97
2023-04-21T09:44:04.983Z,12.07
2023-04-21T09:46:37.357Z,13.18
2023-04-21T09:49:05.830Z,11.20
2023-04-21T09:56:50.463Z,7.82
2023-04-21T09:59:27.545Z,9.32
2023-04-21T10:01:58.174Z,8.40
2023-04-21T10:04:26.688Z,13.05
2023-04-21T10:06:55.819Z,7.82
2023-04-21T10:09:25.754Z,13.75
2023-04-21T10:11:55.471Z,10.95
2023-04-21T10:14:22.648Z,6.35
2023-04-21T10:17:07.782Z,11.95
2023-04-21T10:19:40.605Z,6.38
2023-04-21T10:22:11.632Z,8.35
2023-04-21T10:24:43.010Z,6.50
2023-04-21T10:27:12.045Z,7.53
2023-04-21T10:29:55.711Z,9.05
2023-04-21T10:32:43.421Z,7.43
2023-04-21T10:35:22.540Z,9.02
2023-04-21T10:37:53.750Z,9.93
2023-04-21T10:40:47.203Z,6.55
2023-04-21T10:43:49.337Z,12.43
2023-04-21T10:46:49.689Z,9.05
2023-04-21T10:49:32.530Z,6.80
2023-04-21T10:51:59.741Z,7.40
2023-04-21T10:54:29.823Z,7.00
2023-04-21T10:56:59.236Z,6.50
2023-04-21T10:59:29.242Z,8.30
2023-04-21T11:01:57.352Z,7.20
2023-04-21T11:04:25.185Z,6.50
2023-04-21T11:07:13.679Z,8.55
2023-04-21T11:09:42.953Z,7.55
2023-04-21T11:12:18.286Z,11.70
2023-04-21T11:14:49.888Z,6.93
2023-04-21T11:17:20.146Z,8.98
2023-04-21T11:19:51.788Z,8.40
2023-04-21T11:22:23.409Z,9.40
2023-04-21T11:24:54.320Z,7.57
2023-04-21T11:27:24.866Z,5.78
2023-04-21T11:29:51.835Z,5.97
2023-04-21T11:32:19.156Z,10.00
2023-04-21T11:34:46.576Z,7.60
2023-04-21T11:37:30.028Z,6.43
2023-04-21T11:39:59.544Z,6.07
2023-04-21T11:42:27.194Z,8.13
2023-04-21T11:44:56.792Z,7.05
2023-04-21T11:47:26.325Z,6.88
2023-04-21T11:49:59.414Z,8.38
2023-04-21T11:52:28.124Z,7.90
2023-04-21T11:55:00.404Z,5.82
2023-04-21T11:57:29.744Z,8.18
2023-04-21T12:00:08.469Z,7.53
2023-04-21T12:02:35.986Z,6.13
2023-04-21T12:05:07.564Z,13.00
2023-04-21T12:07:37.912Z,6.40
2023-04-21T12:10:22.379Z,6.40
2023-04-21T12:12:49.483Z,5.90
2023-04-21T12:15:22.829Z,5.60
2023-04-21T12:17:54.744Z,6.72
2023-04-21T12:20:24.368Z,7.45
2023-04-21T12:22:52.362Z,6.28
2023-04-21T12:25:19.895Z,6.90
2023-04-21T12:27:58.283Z,5.30
2023-04-21T12:30:25.517Z,8.00
2023-04-21T12:32:54.218Z,10.95
2023-04-21T12:35:23.142Z,6.65
2023-04-21T12:37:50.140Z,4.88
2023-04-21T12:40:17.105Z,6.50
2023-04-21T12:42:44.228Z,5.28
2023-04-21T12:45:11.657Z,5.03
2023-04-21T12:47:39.301Z,5.88
2023-04-21T12:50:07.162Z,4.82
2023-04-21T12:52:34.258Z,5.70
2023-04-21T12:55:01.312Z,7.15
2023-04-21T12:57:28.858Z,6.25
2023-04-21T12:59:55.946Z,5.43
2023-04-21T13:02:23.064Z,7.25
2023-04-21T13:04:50.243Z,11.23
2023-04-21T13:07:21.127Z,6.25
2023-04-21T13:09:48.148Z,6.90
2023-04-21T13:12:15.123Z,6.20
2023-04-21T13:14:42.053Z,7.68
2023-04-21T13:17:09.444Z,5.80
2023-04-21T13:19:36.475Z,9.50
2023-04-21T13:22:03.435Z,7.05
2023-04-21T13:24:31.008Z,4.60
2023-04-21T13:26:58.865Z,7.80
2023-04-21T13:29:30.253Z,5.35
2023-04-21T13:31:57.366Z,8.45
2023-04-21T13:34:24.521Z,5.65
2023-04-21T13:36:51.591Z,5.32
2023-04-21T13:39:18.476Z,4.93
2023-04-21T13:41:45.402Z,8.35
2023-04-21T13:44:12.424Z,7.43
2023-04-21T13:46:39.424Z,7.32
2023-04-21T13:49:06.632Z,4.90
2023-04-21T13:51:34.195Z,6.38
2023-04-21T13:54:01.144Z,5.60
2023-04-21T13:56:28.241Z,7.68
2023-04-21T13:58:55.889Z,6.60
2023-04-21T14:01:23.106Z,6.65
2023-04-21T14:03:50.177Z,4.53
2023-04-21T14:06:17.672Z,7.68
2023-04-21T14:08:44.641Z,7.50
2023-04-21T14:11:11.588Z,6.43
2023-04-21T14:13:47.759Z,6.82
2023-04-21T14:16:19.318Z,4.38
2023-04-21T14:18:47.415Z,10.68
2023-04-21T14:21:14.538Z,5.78
2023-04-21T14:23:41.717Z,6.47
2023-04-21T14:26:08.936Z,6.85
2023-04-21T14:28:35.908Z,15.73
2023-04-21T14:31:04.188Z,5.40
2023-04-21T14:33:33.102Z,5.70
2023-04-21T14:36:00.782Z,10.80
2023-04-21T14:38:29.607Z,8.30
2023-04-21T14:40:56.866Z,5.45
2023-04-21T14:43:23.966Z,5.68
2023-04-21T14:45:51.095Z,5.68
2023-04-21T14:48:18.555Z,4.90
2023-04-21T14:50:45.680Z,6.07
2023-04-21T14:53:12.659Z,6.80
2023-04-21T14:55:39.514Z,5.53
2023-04-21T14:58:07.338Z,5.13
2023-04-21T15:00:36.335Z,5.90
2023-04-21T15:03:03.597Z,5.32
2023-04-21T15:05:30.779Z,5.05
2023-04-21T15:07:57.642Z,3.88
2023-04-21T15:10:24.545Z,11.75
2023-04-21T15:12:51.573Z,4.45
2023-04-21T15:15:19.148Z,6.30
2023-04-21T15:17:46.085Z,3.97
2023-04-21T15:20:13.308Z,8.88
2023-04-21T15:22:40.259Z,4.63
2023-04-21T15:25:07.661Z,5.85
2023-04-21T15:27:34.789Z,5.80
2023-04-21T15:30:04.092Z,5.50
2023-04-21T15:32:31.084Z,4.43
2023-04-21T15:34:58.030Z,18.00
2023-04-21T15:37:25.930Z,6.63
2023-04-21T15:39:53.151Z,5.97
2023-04-21T15:42:20.636Z,5.90
2023-04-21T15:44:47.745Z,5.65
2023-04-21T15:47:17.054Z,6.13
2023-04-21T15:49:44.018Z,4.55
2023-04-21T15:52:11.216Z,7.68
2023-04-21T15:54:38.516Z,5.63
2023-04-21T15:57:05.875Z,6.40
2023-04-21T15:59:32.999Z,8.30
2023-04-21T16:02:00.216Z,14.98
2023-04-21T16:04:27.406Z,7.80
2023-04-21T16:06:54.655Z,7.28
2023-04-21T16:09:21.719Z,4.63
2023-04-21T16:11:52.451Z,9.98
2023-04-21T16:14:19.560Z,8.38
2023-04-21T16:16:46.610Z,6.80
2023-04-21T16:19:13.804Z,4.95
2023-04-21T16:21:41.959Z,18.58
2023-04-21T16:24:09.228Z,6.97
2023-04-21T16:26:36.880Z,4.72
2023-04-21T16:29:03.992Z,4.88
2023-04-21T16:31:31.349Z,9.10
2023-04-21T16:34:00.105Z,5.00
2023-04-21T16:36:34.134Z,7.20
2023-04-21T16:39:01.182Z,9.63
2023-04-21T16:41:28.093Z,6.20
2023-04-21T16:43:55.178Z,5.50
2023-04-21T16:46:22.275Z,4.40
2023-04-21T16:48:49.372Z,9.05
2023-04-21T16:51:17.159Z,4.97
2023-04-21T16:53:44.171Z,15.57
2023-04-21T16:56:11.121Z,11.93
2023-04-21T16:58:38.130Z,6.15
2023-04-21T17:01:07.783Z,4.72
2023-04-21T17:03:35.150Z,10.32
2023-04-21T17:06:05.079Z,7.00
2023-04-21T17:08:32.007Z,5.95
2023-04-21T17:11:00.019Z,7.68
2023-04-21T17:13:27.257Z,9.48
2023-04-21T17:15:54.253Z,7.22
2023-04-21T17:18:21.330Z,7.03
2023-04-21T17:20:48.529Z,6.05
2023-04-21T17:23:15.659Z,5.38
2023-04-21T17:25:42.671Z,6.57
2023-04-21T17:28:09.616Z,6.43
2023-04-21T17:30:36.612Z,5.45
2023-04-21T17:33:15.424Z,6.93
2023-04-21T17:35:52.456Z,5.60
2023-04-21T17:38:29.414Z,6.55
2023-04-21T17:40:56.393Z,9.23
2023-04-21T17:43:23.486Z,4.32
2023-04-21T17:45:51.264Z,5.40
2023-04-21T17:48:18.623Z,3.83
2023-04-21T17:50:45.814Z,6.05
2023-04-21T17:53:12.921Z,7.10
2023-04-21T17:55:42.663Z,9.63
2023-04-21T17:58:12.270Z,6.75
2023-04-21T18:00:40.162Z,7.35
2023-04-21T18:03:07.368Z,7.22
2023-04-21T18:05:34.926Z,7.53
2023-04-21T18:08:02.242Z,15.20
2023-04-21T18:10:29.885Z,10.30
2023-04-21T18:12:58.147Z,7.80
2023-04-21T18:15:25.118Z,6.60
2023-04-21T18:17:53.056Z,6.90
2023-04-21T18:20:20.647Z,8.07
2023-04-21T18:22:50.105Z,8.25
2023-04-21T18:25:27.362Z,7.65
2023-04-21T18:28:01.554Z,10.52
2023-04-21T18:30:28.526Z,9.00
2023-04-21T18:32:55.656Z,6.05
2023-04-21T18:35:22.855Z,7.55
2023-04-21T18:37:49.782Z,6.85
2023-04-21T18:40:16.959Z,7.40
2023-04-21T18:42:43.830Z,8.18
2023-04-21T18:45:11.451Z,8.93
2023-04-21T18:47:39.224Z,8.55
2023-04-21T18:50:08.647Z,8.82
2023-04-21T18:52:35.633Z,9.23
2023-04-21T18:55:02.751Z,5.43
2023-04-21T18:57:30.451Z,8.85
2023-04-21T18:59:57.354Z,9.85
2023-04-21T19:02:24.758Z,8.23
2023-04-21T19:04:52.454Z,9.85
2023-04-21T19:07:19.571Z,20.40
2023-04-21T19:09:46.684Z,9.95
2023-04-21T19:12:14.393Z,11.00
2023-04-21T19:14:47.266Z,10.88
2023-04-21T19:17:15.526Z,10.27
2023-04-21T19:19:42.736Z,8.95
2023-04-21T19:22:09.703Z,8.93
2023-04-21T19:24:36.870Z,9.88
2023-04-21T19:27:06.159Z,8.93
2023-04-21T19:29:33.549Z,6.63
2023-04-21T19:32:00.634Z,6.75
2023-04-21T19:34:27.894Z,7.68
2023-04-21T19:36:54.908Z,9.38
2023-04-21T19:39:21.895Z,8.10
2023-04-21T19:41:48.844Z,6.93
2023-04-21T19:44:15.917Z,8.43
2023-04-21T19:46:43.449Z,7.22
2023-04-21T19:49:14.085Z,8.20
2023-04-21T19:51:41.410Z,9.52
2023-04-21T19:54:12.194Z,5.60
2023-04-21T19:56:40.151Z,7.00
2023-04-21T19:59:07.733Z,6.97
2023-04-21T20:01:34.858Z,6.68
2023-04-21T20:04:03.292Z,9.00
2023-04-21T20:06:31.604Z,9.35
2023-04-21T20:08:58.792Z,6.15
2023-04-21T20:11:28.814Z,7.47
2023-04-21T20:13:56.187Z,12.43
2023-04-21T20:16:23.735Z,6.03
2023-04-21T20:18:50.765Z,7.05
2023-04-21T20:21:17.839Z,10.57
2023-04-21T20:23:44.848Z,6.85
2023-04-21T20:26:12.089Z,7.25
2023-04-21T20:28:39.091Z,7.60
2023-04-21T20:31:06.322Z,9.73
2023-04-21T20:33:33.323Z,5.45
2023-04-21T20:36:07.294Z,6.43
2023-04-21T20:38:35.332Z,7.53
2023-04-21T20:41:03.148Z,9.60
2023-04-21T20:43:33.061Z,11.82
2023-04-21T20:46:01.657Z,10.15
2023-04-21T20:48:28.653Z,6.45
2023-04-21T20:50:55.970Z,9.32
2023-04-21T20:53:23.911Z,5.35
2023-04-21T20:55:51.111Z,5.65
2023-04-21T20:58:18.024Z,5.90
2023-04-21T21:00:45.488Z,8.15
2023-04-21T21:03:13.786Z,6.30
2023-04-21T21:05:41.411Z,7.53
2023-04-21T21:08:09.090Z,6.85
2023-04-21T21:10:36.234Z,5.90
2023-04-21T21:13:04.370Z,11.15
2023-04-21T21:15:31.496Z,6.10
2023-04-21T21:17:58.858Z,8.95
2023-04-21T21:20:26.192Z,5.68
2023-04-21T21:22:53.202Z,8.73
2023-04-21T21:25:20.509Z,8.95
2023-04-21T21:27:47.473Z,9.05
2023-04-21T21:30:14.810Z,10.32
2023-04-21T21:32:41.811Z,10.75
2023-04-21T21:35:10.227Z,7.10
2023-04-21T21:37:38.289Z,8.48
2023-04-21T21:40:07.206Z,8.40
2023-04-21T21:42:34.533Z,10.75
2023-04-21T21:45:01.604Z,10.32
2023-04-21T21:47:28.773Z,8.00
2023-04-21T21:49:58.616Z,9.52
2023-04-21T21:52:26.352Z,13.15
2023-04-21T21:54:53.887Z,9.88
2023-04-21T21:57:21.754Z,10.90
2023-04-21T21:59:49.128Z,8.52
2023-04-21T22:02:16.686Z,8.88
2023-04-21T22:04:44.018Z,12.05
2023-04-21T22:07:11.157Z,12.10
2023-04-21T22:09:39.772Z,14.73
2023-04-21T22:12:07.447Z,8.15
2023-04-21T22:14:34.947Z,9.25
2023-04-21T22:17:02.867Z,7.97
2023-04-21T22:19:30.988Z,8.38
2023-04-21T22:21:58.049Z,8.90
2023-04-21T22:24:25.449Z,8.35
2023-04-21T22:26:52.416Z,10.40
2023-04-21T22:29:19.543Z,8.20
2023-04-21T22:31:47.195Z,11.77
2023-04-21T22:34:16.631Z,10.48
2023-04-21T22:36:43.661Z,14.15
2023-04-21T22:39:10.927Z,7.55
2023-04-21T22:41:39.108Z,9.85
2023-04-21T22:44:07.142Z,10.30
2023-04-21T22:46:34.466Z,11.70
2023-04-21T22:49:03.202Z,9.60
2023-04-21T22:51:32.529Z,7.35
2023-04-21T22:54:00.376Z,10.18
2023-04-21T22:56:30.065Z,8.98
2023-04-21T22:58:57.633Z,8.15
2023-04-21T23:01:24.701Z,11.23
2023-04-21T23:03:51.840Z,8.05
2023-04-21T23:06:19.292Z,8.68
2023-04-21T23:08:46.420Z,7.43
2023-04-21T23:11:14.137Z,8.77
2023-04-21T23:13:41.941Z,7.90
2023-04-21T23:16:08.947Z,8.65
2023-04-21T23:18:36.071Z,10.85
2023-04-21T23:21:03.064Z,8.32
2023-04-21T23:23:29.988Z,14.13
2023-04-21T23:25:56.911Z,7.90
2023-04-21T23:28:24.348Z,7.53
2023-04-21T23:30:51.360Z,12.15
2023-04-21T23:33:18.724Z,10.07
2023-04-21T23:35:45.962Z,8.18
2023-04-21T23:38:12.984Z,8.25
2023-04-21T23:40:40.118Z,9.82
2023-04-21T23:43:07.498Z,11.23
2023-04-21T23:45:34.770Z,6.88
2023-04-21T23:48:01.772Z,8.45
2023-04-21T23:50:29.092Z,7.68
2023-04-21T23:52:56.683Z,9.48
2023-04-21T23:55:23.884Z,15.18
2023-04-21T23:57:51.068Z,8.00
